aviador You're here:

KCLK Decoded Metar

CLINTON in OK, USA
Report Time2017-06-25 14:15:00
UTC Time2017-06-25 13:50:43
Flight Rules vfr VFR
Wind150° at 05 kt
W.Decomp.*RWY 13: 4.9 kt HW 1.1 kt RCW
RWY 17: 4.5 kt HW 2.3 kt LCW
W.Rank150° ranks 3
Current wind is below 150° avg. (9.2)
Visibility9999 m
Phenomena:N/A
Clouds:N/A
Expected CloudBase > 3,200 ft AGL from Temp-Dew spread
CeilingNone
Temp20°C (ISA +8)
Dew Point12°C (60% RH)
AAT18.8°C
QNH1026 hPa
Density Alt2,329 ft
Elevation1,614 ft
Report Wrong Elevation
Raw Report
KCLK 251415Z AUTO 15005KT 10SM CLR 20/12 A3029 RMK AO2=

Extra information for KCLK:More info

Metar Taf Metar & Taf Last 4 Metars F.Rules Stats Wind Profile Meteogram Temp Stats Airport Information Weather charts Add Link Nearby VenuesMetar ALERT Operation Metar Decoded Social comments

AIRNAV info for KCLK